Time;durP1;ratioP1;P1;durP2;ratioP2;P2;SDS_P1;SDS_P2;PMS_P1;PMS_P2;Temp;Humidity;BMP_temperature;BMP_pressure;BME280_temperature;BME280_humidity;BME280_pressure;Samples;Min_cycle;Max_cycle;Signal;HPM_P1;HPM_P2
2022/10/22 00:00:55;;;;;;;45.90;34.70;;;15.50;99.90;;;;;;5075326;28;20024;-65
2022/10/22 00:03:21;;;;;;;38.55;31.48;;;15.40;99.90;;;;;;5075170;28;20494;-62
2022/10/22 00:05:47;;;;;;;38.67;31.30;;;15.50;99.90;;;;;;5075094;28;20021;-64
2022/10/22 00:08:13;;;;;;;45.13;34.80;;;15.50;99.90;;;;;;5074521;28;20021;-63
2022/10/22 00:10:39;;;;;;;37.75;30.20;;;15.50;99.90;;;;;;5075000;28;20053;-64
2022/10/22 00:13:05;;;;;;;32.83;26.65;;;15.50;99.90;;;;;;5075291;28;20064;-64
2022/10/22 00:15:31;;;;;;;33.85;26.42;;;15.50;99.90;;;;;;5074902;28;20101;-64
2022/10/22 00:17:56;;;;;;;36.58;29.35;;;15.50;99.90;;;;;;5074799;28;20558;-65
2022/10/22 00:20:22;;;;;;;43.17;32.88;;;15.50;99.90;;;;;;5074806;28;20108;-64
2022/10/22 00:22:48;;;;;;;33.60;25.70;;;15.50;99.90;;;;;;5074838;28;20082;-63
2022/10/22 00:25:14;;;;;;;30.95;23.88;;;15.40;99.90;;;;;;5074830;28;20028;-64
2022/10/22 00:27:40;;;;;;;24.17;21.00;;;15.40;99.90;;;;;;5074686;28;20104;-63
2022/10/22 00:30:07;;;;;;;22.42;18.17;;;15.50;99.90;;;;;;5074573;28;20048;-64
2022/10/22 00:32:32;;;;;;;20.23;17.08;;;15.50;99.90;;;;;;5074592;28;20050;-63
2022/10/22 00:34:58;;;;;;;22.17;17.42;;;15.40;99.90;;;;;;5074290;28;20017;-64
2022/10/22 00:37:24;;;;;;;18.20;15.38;;;15.50;99.90;;;;;;5074534;28;20085;-65
2022/10/22 00:39:49;;;;;;;22.38;17.65;;;15.50;99.90;;;;;;5074521;28;20045;-64
2022/10/22 00:42:20;;;;;;;22.42;18.33;;;15.50;99.90;;;;;;5074376;28;20553;-63
2022/10/22 00:45:09;;;;;;;19.45;15.98;;;15.50;99.90;;;;;;5074405;28;20021;-65
2022/10/22 00:47:59;;;;;;;17.45;14.75;;;15.50;99.90;;;;;;5074257;28;20025;-65
2022/10/22 00:50:38;;;;;;;16.00;13.32;;;15.50;99.90;;;;;;5074145;28;20095;-63
2022/10/22 00:53:12;;;;;;;16.98;14.23;;;15.50;99.90;;;;;;5074410;28;20119;-63
2022/10/22 00:55:39;;;;;;;14.00;11.70;;;15.60;99.90;;;;;;5074199;28;20031;-64
2022/10/22 00:58:05;;;;;;;17.92;13.85;;;15.50;99.90;;;;;;5074033;28;20439;-65
2022/10/22 01:00:31;;;;;;;14.80;11.68;;;15.50;99.90;;;;;;5074083;28;20052;-63
2022/10/22 01:02:57;;;;;;;12.00;10.70;;;15.50;99.90;;;;;;5074052;28;20032;-63
2022/10/22 01:05:26;;;;;;;11.15;9.75;;;15.40;99.90;;;;;;5074168;28;20060;-65
2022/10/22 01:07:53;;;;;;;10.48;9.15;;;15.40;99.90;;;;;;5073977;28;20025;-65
2022/10/22 01:10:24;;;;;;;10.70;9.57;;;15.40;99.90;;;;;;5074016;28;20115;-63
2022/10/22 01:13:33;;;;;;;16.35;12.10;;;15.40;99.90;;;;;;5073742;28;20036;-64
2022/10/22 01:16:11;;;;;;;13.32;10.40;;;15.30;99.90;;;;;;5073746;28;20482;-64
2022/10/22 01:18:43;;;;;;;12.25;9.82;;;15.20;99.90;;;;;;5073539;28;20024;-64
2022/10/22 01:21:14;;;;;;;13.82;10.55;;;15.20;99.90;;;;;;5073609;28;20082;-64
2022/10/22 01:23:46;;;;;;;10.27;9.18;;;15.20;99.90;;;;;;5073794;28;20021;-63
2022/10/22 01:26:35;;;;;;;10.15;8.27;;;15.20;99.90;;;;;;5073665;28;20029;-63
2022/10/22 01:29:10;;;;;;;9.68;8.00;;;15.20;99.90;;;;;;5073450;28;20050;-62
2022/10/22 01:31:43;;;;;;;8.05;7.03;;;15.20;99.90;;;;;;5073438;28;20029;-65
2022/10/22 01:34:13;;;;;;;10.95;7.70;;;15.20;99.90;;;;;;5073484;28;20025;-64
2022/10/22 01:36:39;;;;;;;8.93;6.90;;;15.20;99.90;;;;;;5073556;28;20059;-64
2022/10/22 01:39:07;;;;;;;8.38;6.75;;;15.10;99.90;;;;;;5073426;28;20016;-63
2022/10/22 01:41:34;;;;;;;9.82;7.60;;;15.10;99.90;;;;;;5073561;28;20028;-64
2022/10/22 01:44:00;;;;;;;9.88;8.23;;;15.10;99.90;;;;;;5073448;28;20048;-64
2022/10/22 01:46:27;;;;;;;10.00;8.77;;;15.10;99.90;;;;;;5073399;28;20474;-65
2022/10/22 01:49:25;;;;;;;11.52;7.55;;;15.10;99.90;;;;;;5073187;28;20016;-64
2022/10/22 01:52:20;;;;;;;7.03;6.20;;;15.10;99.90;;;;;;5061139;28;20479;-63
2022/10/22 01:54:55;;;;;;;9.93;6.53;;;15.10;99.90;;;;;;5073278;28;20086;-63
2022/10/22 01:57:37;;;;;;;10.23;8.40;;;15.10;99.90;;;;;;5073273;28;20025;-64
2022/10/22 02:00:09;;;;;;;8.27;6.82;;;15.10;99.90;;;;;;5073164;28;20471;-64
2022/10/22 02:02:37;;;;;;;8.25;6.43;;;15.10;99.90;;;;;;5073062;28;20016;-64
2022/10/22 02:05:11;;;;;;;10.35;7.90;;;15.10;99.90;;;;;;5073157;28;20027;-63
2022/10/22 02:07:54;;;;;;;8.65;6.90;;;15.00;99.90;;;;;;5073141;28;20017;-64
2022/10/22 02:10:21;;;;;;;8.65;6.72;;;15.00;99.90;;;;;;5073474;28;20375;-64
2022/10/22 02:12:51;;;;;;;7.93;6.93;;;15.00;99.90;;;;;;5072947;28;20495;-65
2022/10/22 02:15:19;;;;;;;17.45;12.20;;;15.00;99.90;;;;;;5073254;28;20029;-64
2022/10/22 02:17:45;;;;;;;10.52;8.88;;;15.00;99.90;;;;;;5073289;28;20075;-63
2022/10/22 02:20:43;;;;;;;16.55;12.32;;;15.00;99.90;;;;;;5072977;28;20025;-63
2022/10/22 02:23:09;;;;;;;15.98;12.63;;;14.90;99.90;;;;;;5070654;28;20127;-63
2022/10/22 02:25:38;;;;;;;17.15;13.77;;;14.80;99.90;;;;;;5073209;28;20071;-62
2022/10/22 02:28:20;;;;;;;13.80;11.35;;;14.80;99.90;;;;;;5072777;28;20016;-63
2022/10/22 02:30:52;;;;;;;17.90;13.15;;;14.70;99.90;;;;;;5072673;28;20506;-63
2022/10/22 02:33:26;;;;;;;13.25;11.65;;;14.70;99.90;;;;;;5076438;28;20078;-62
2022/10/22 02:35:52;;;;;;;11.57;10.30;;;14.60;99.90;;;;;;5076863;28;20017;-62
2022/10/22 02:38:19;;;;;;;13.25;11.15;;;14.60;99.90;;;;;;5077153;28;20119;-63
2022/10/22 02:40:45;;;;;;;13.20;10.93;;;14.60;99.90;;;;;;5076894;28;20095;-64
2022/10/22 02:43:11;;;;;;;13.93;11.75;;;14.60;99.90;;;;;;5076725;28;20024;-63
2022/10/22 02:45:37;;;;;;;13.20;10.20;;;14.70;99.90;;;;;;5076632;28;20498;-64
2022/10/22 02:48:03;;;;;;;8.70;7.68;;;14.70;99.90;;;;;;5076892;28;20463;-64
2022/10/22 02:50:28;;;;;;;11.52;9.55;;;14.70;99.90;;;;;;5076674;28;20029;-63
2022/10/22 02:52:54;;;;;;;10.15;8.75;;;14.80;99.90;;;;;;5076405;28;20032;-63
2022/10/22 02:55:20;;;;;;;9.25;8.25;;;14.80;99.90;;;;;;5076550;28;20021;-63
2022/10/22 02:57:45;;;;;;;9.55;8.40;;;14.80;99.90;;;;;;5076407;28;20020;-64
2022/10/22 03:00:12;;;;;;;11.18;8.93;;;14.80;99.90;;;;;;5076109;28;20031;-64
2022/10/22 03:02:38;;;;;;;12.70;10.38;;;14.70;99.90;;;;;;5076443;28;20028;-63
2022/10/22 03:05:04;;;;;;;11.38;8.63;;;14.60;99.90;;;;;;5076416;28;20021;-63
2022/10/22 03:07:30;;;;;;;10.27;8.77;;;14.50;99.90;;;;;;5076276;28;20082;-65
2022/10/22 03:09:55;;;;;;;9.02;7.32;;;14.50;99.90;;;;;;5076307;28;20475;-62
2022/10/22 03:12:21;;;;;;;7.97;6.97;;;14.60;99.90;;;;;;5076169;28;20039;-63
2022/10/22 03:14:47;;;;;;;12.77;8.75;;;14.60;99.90;;;;;;5075955;28;20016;-65
2022/10/22 03:17:12;;;;;;;12.38;10.48;;;14.60;99.90;;;;;;5076040;28;20028;-65
2022/10/22 03:19:38;;;;;;;11.43;9.60;;;14.60;99.90;;;;;;5076204;28;20024;-63
2022/10/22 03:22:14;;;;;;;8.77;7.63;;;14.60;99.90;;;;;;5076272;28;20056;-65
2022/10/22 03:24:43;;;;;;;8.10;7.03;;;14.60;99.90;;;;;;5076112;28;20056;-66
2022/10/22 03:27:11;;;;;;;7.28;5.82;;;14.60;99.90;;;;;;5075972;28;20029;-63
2022/10/22 03:29:38;;;;;;;6.07;5.40;;;14.70;99.90;;;;;;5075472;28;20052;-63
2022/10/22 03:32:04;;;;;;;4.75;4.35;;;14.80;99.90;;;;;;5075777;28;20032;-65
2022/10/22 03:34:29;;;;;;;4.90;4.35;;;14.80;99.90;;;;;;5075844;28;20147;-65
2022/10/22 03:36:57;;;;;;;5.00;4.22;;;14.80;99.90;;;;;;5075644;28;20028;-64
2022/10/22 03:39:23;;;;;;;4.40;3.85;;;14.90;99.90;;;;;;5075989;28;20024;-64
2022/10/22 03:41:50;;;;;;;6.28;5.22;;;14.80;99.90;;;;;;5075840;28;20402;-63
2022/10/22 03:44:16;;;;;;;5.72;5.05;;;14.80;99.90;;;;;;5074087;28;20444;-63
2022/10/22 03:46:42;;;;;;;6.45;4.93;;;14.70;99.90;;;;;;5074437;28;20379;-63
2022/10/22 03:49:08;;;;;;;7.47;5.10;;;14.60;99.90;;;;;;5075663;28;20029;-63
2022/10/22 03:51:34;;;;;;;6.00;4.80;;;14.70;99.90;;;;;;5075455;28;20112;-64
2022/10/22 03:54:00;;;;;;;7.65;5.68;;;14.60;99.90;;;;;;5075480;28;20025;-65
2022/10/22 03:56:26;;;;;;;7.97;5.93;;;14.60;99.90;;;;;;5075458;28;20044;-63
2022/10/22 03:58:56;;;;;;;9.65;7.00;;;14.60;99.90;;;;;;5075235;28;20450;-63
2022/10/22 04:01:22;;;;;;;11.45;8.40;;;14.60;99.90;;;;;;5075597;28;20028;-64
2022/10/22 04:03:48;;;;;;;13.90;10.05;;;14.50;99.90;;;;;;5075262;28;20021;-64
2022/10/22 04:06:14;;;;;;;11.27;8.27;;;14.50;99.90;;;;;;5075243;28;20027;-62
2022/10/22 04:08:42;;;;;;;12.55;9.55;;;14.40;99.90;;;;;;5075141;28;20020;-63
2022/10/22 04:11:08;;;;;;;13.23;9.98;;;14.30;99.90;;;;;;5075103;28;20016;-62
2022/10/22 04:13:34;;;;;;;11.35;9.05;;;14.30;99.90;;;;;;5074864;28;20024;-66
2022/10/22 04:16:18;;;;;;;11.50;8.80;;;14.30;99.90;;;;;;5074963;28;20070;-63
2022/10/22 04:18:45;;;;;;;14.07;10.75;;;14.30;99.90;;;;;;5075004;28;20581;-63
2022/10/22 04:21:12;;;;;;;16.05;12.50;;;14.30;99.90;;;;;;5074828;28;20414;-64
2022/10/22 04:23:42;;;;;;;21.48;14.63;;;14.20;99.90;;;;;;5074996;28;20028;-64
2022/10/22 04:26:08;;;;;;;16.55;12.73;;;14.10;99.90;;;;;;5075136;28;20021;-64
2022/10/22 04:28:34;;;;;;;14.57;11.38;;;14.00;99.90;;;;;;5074528;28;20053;-63
2022/10/22 04:31:00;;;;;;;15.65;11.27;;;14.00;99.90;;;;;;5074772;28;20031;-64
2022/10/22 04:33:25;;;;;;;26.17;18.92;;;14.00;99.90;;;;;;5074925;28;20438;-64
2022/10/22 04:35:51;;;;;;;19.02;15.02;;;14.00;99.90;;;;;;5074790;28;20572;-65
2022/10/22 04:38:17;;;;;;;20.60;15.32;;;14.00;99.90;;;;;;5074665;28;20017;-63
2022/10/22 04:40:42;;;;;;;17.65;14.25;;;14.00;99.90;;;;;;5074780;28;20051;-64
2022/10/22 04:43:08;;;;;;;18.60;14.75;;;14.10;99.90;;;;;;5074344;28;20013;-65
2022/10/22 04:45:35;;;;;;;17.17;12.88;;;14.10;99.90;;;;;;5074443;28;20024;-65
2022/10/22 04:48:00;;;;;;;18.55;13.80;;;14.10;99.90;;;;;;5074471;28;20047;-63
2022/10/22 04:50:27;;;;;;;18.35;14.05;;;14.10;99.90;;;;;;5074588;28;20463;-62
2022/10/22 04:52:52;;;;;;;16.58;13.13;;;14.10;99.90;;;;;;5074153;28;20029;-63
2022/10/22 04:55:18;;;;;;;18.27;14.45;;;14.10;99.90;;;;;;5074014;28;20111;-64
2022/10/22 04:57:44;;;;;;;16.40;13.32;;;14.00;99.90;;;;;;5074274;28;20387;-64
2022/10/22 05:00:10;;;;;;;58.45;38.38;;;14.00;99.90;;;;;;5074006;28;20059;-63
2022/10/22 05:02:36;;;;;;;32.92;24.65;;;14.00;99.90;;;;;;5074237;28;20078;-63
2022/10/22 05:05:02;;;;;;;33.72;23.02;;;13.90;99.90;;;;;;5074091;28;20100;-62
2022/10/22 05:07:27;;;;;;;32.80;22.70;;;13.90;99.90;;;;;;5073975;28;20485;-65
2022/10/22 05:09:53;;;;;;;26.08;19.45;;;13.90;99.90;;;;;;5073751;28;20023;-63
2022/10/22 05:12:19;;;;;;;26.25;18.73;;;13.90;99.90;;;;;;5073918;28;20059;-64
2022/10/22 05:14:44;;;;;;;21.48;16.55;;;13.90;99.90;;;;;;5073765;28;20017;-65
2022/10/22 05:17:10;;;;;;;20.67;16.27;;;14.00;99.90;;;;;;5074039;28;20052;-63
2022/10/22 05:19:36;;;;;;;21.83;16.35;;;14.10;99.90;;;;;;5073806;28;20383;-65
2022/10/22 05:22:03;;;;;;;20.80;15.30;;;14.10;99.90;;;;;;5073733;28;20025;-63
2022/10/22 05:24:30;;;;;;;19.58;14.40;;;14.20;99.90;;;;;;5073382;28;20085;-62
2022/10/22 05:26:57;;;;;;;16.55;13.75;;;14.20;99.90;;;;;;5073716;28;20020;-63
2022/10/22 05:29:23;;;;;;;30.70;21.40;;;14.30;99.90;;;;;;5073441;28;20445;-63
2022/10/22 05:31:49;;;;;;;20.05;16.35;;;14.30;99.90;;;;;;5072219;28;20055;-63
2022/10/22 05:34:15;;;;;;;19.38;15.82;;;14.30;99.90;;;;;;5073624;28;20025;-66
2022/10/22 05:36:42;;;;;;;17.52;14.55;;;14.40;99.90;;;;;;5073594;28;20471;-63
2022/10/22 05:39:07;;;;;;;17.38;14.00;;;14.40;99.90;;;;;;5073252;28;20083;-64
2022/10/22 05:41:37;;;;;;;12.98;11.57;;;14.50;99.90;;;;;;5073489;28;20029;-63
2022/10/22 05:44:04;;;;;;;12.07;10.48;;;14.60;99.90;;;;;;5073558;28;20016;-65
2022/10/22 05:46:32;;;;;;;11.63;9.73;;;14.60;99.90;;;;;;5073418;28;20062;-65
2022/10/22 05:49:00;;;;;;;10.35;9.20;;;14.60;99.90;;;;;;5073512;28;20103;-63
2022/10/22 05:51:28;;;;;;;9.80;8.63;;;14.60;99.90;;;;;;5073278;28;20071;-63
2022/10/22 05:53:57;;;;;;;8.65;7.75;;;14.60;99.90;;;;;;5073074;28;20044;-65
2022/10/22 05:56:24;;;;;;;8.38;7.22;;;14.70;99.90;;;;;;5073389;28;20024;-64
2022/10/22 05:58:50;;;;;;;7.18;6.47;;;14.80;99.90;;;;;;5073328;28;20047;-63
2022/10/22 06:01:27;;;;;;;8.05;6.78;;;14.80;99.90;;;;;;5073523;28;20021;-64
2022/10/22 06:03:55;;;;;;;7.75;6.75;;;14.80;99.90;;;;;;5073415;28;20017;-65
2022/10/22 06:06:39;;;;;;;5.82;5.28;;;14.80;99.90;;;;;;5072366;28;20020;-65
2022/10/22 06:09:23;;;;;;;;;;;14.80;99.90;;;;;;5073546;28;20439;-64
2022/10/22 06:11:50;;;;;;;7.63;6.03;;;14.90;99.90;;;;;;5073039;28;20010;-63
2022/10/22 06:14:17;;;;;;;8.80;5.57;;;15.00;99.90;;;;;;5073279;28;20031;-63
2022/10/22 06:16:43;;;;;;;6.03;5.20;;;15.10;99.90;;;;;;5073017;28;20021;-63
2022/10/22 06:19:11;;;;;;;7.57;6.20;;;15.20;99.90;;;;;;5073063;28;20020;-65
2022/10/22 06:21:37;;;;;;;6.50;5.78;;;15.20;99.90;;;;;;5073468;28;20418;-65
2022/10/22 06:24:03;;;;;;;7.88;6.10;;;15.20;99.90;;;;;;5072805;28;20025;-63
2022/10/22 06:26:29;;;;;;;8.18;5.82;;;15.40;99.90;;;;;;5072995;28;20021;-64
2022/10/22 06:28:55;;;;;;;7.75;5.60;;;15.50;99.90;;;;;;5072987;28;20399;-64
2022/10/22 06:31:22;;;;;;;7.07;5.90;;;15.50;99.90;;;;;;5072991;28;20406;-63
2022/10/22 06:33:47;;;;;;;9.18;6.68;;;15.50;99.90;;;;;;5073179;28;20047;-64
2022/10/22 06:36:16;;;;;;;6.15;5.55;;;15.50;99.90;;;;;;5073132;28;20491;-64
2022/10/22 06:38:42;;;;;;;8.07;6.63;;;15.50;99.90;;;;;;5072750;28;20481;-65
2022/10/22 06:41:13;;;;;;;8.98;7.05;;;15.50;99.90;;;;;;5072860;28;20032;-63
2022/10/22 06:43:46;;;;;;;10.18;7.45;;;15.50;99.90;;;;;;5072950;28;20032;-63
2022/10/22 06:46:14;;;;;;;9.65;8.27;;;15.50;99.90;;;;;;5073151;28;20052;-64
2022/10/22 06:48:40;;;;;;;12.05;9.10;;;15.70;99.90;;;;;;5072752;28;20024;-64
2022/10/22 06:51:09;;;;;;;9.52;8.38;;;17.10;99.90;;;;;;5072765;28;20071;-64
2022/10/22 06:53:35;;;;;;;12.27;9.75;;;18.40;99.90;;;;;;5072632;28;20025;-63
2022/10/22 06:56:08;;;;;;;20.70;14.45;;;20.40;89.50;;;;;;5072676;28;20482;-64
2022/10/22 06:58:35;;;;;;;23.25;19.02;;;22.50;69.00;;;;;;5072805;28;20546;-64
2022/10/22 07:01:12;;;;;;;19.55;17.27;;;24.20;62.90;;;;;;5072704;28;20154;-65
2022/10/22 07:03:38;;;;;;;15.80;14.10;;;26.00;55.00;;;;;;5072820;28;20016;-64
2022/10/22 07:06:07;;;;;;;15.20;13.52;;;27.20;52.30;;;;;;5072520;28;20023;-64
2022/10/22 07:08:33;;;;;;;22.30;19.92;;;28.20;48.90;;;;;;5072579;28;20016;-64
2022/10/22 07:11:15;;;;;;;22.48;19.80;;;28.40;46.80;;;;;;5072731;28;20475;-63
2022/10/22 07:13:41;;;;;;;21.77;18.98;;;27.10;46.90;;;;;;5072538;28;20117;-64
2022/10/22 07:16:08;;;;;;;18.60;16.65;;;27.30;48.40;;;;;;5072609;28;20020;-63
2022/10/22 07:18:35;;;;;;;18.67;16.63;;;27.30;48.00;;;;;;5074556;28;20028;-63
2022/10/22 07:21:01;;;;;;;22.20;19.45;;;28.50;47.00;;;;;;5075976;28;20024;-63
2022/10/22 07:23:27;;;;;;;17.55;15.85;;;28.50;45.70;;;;;;5076070;28;20565;-62
2022/10/22 07:25:53;;;;;;;14.50;13.10;;;29.60;44.30;;;;;;5076276;28;20117;-64
2022/10/22 07:28:19;;;;;;;15.30;13.52;;;29.00;43.40;;;;;;5075841;28;20633;-65
2022/10/22 07:30:45;;;;;;;12.80;11.57;;;27.50;44.20;;;;;;5076086;28;20027;-64
2022/10/22 07:33:11;;;;;;;13.88;11.80;;;25.80;46.10;;;;;;5076107;28;20029;-64
2022/10/22 07:35:38;;;;;;;13.88;11.30;;;24.60;48.70;;;;;;5075693;28;20025;-64
2022/10/22 07:38:05;;;;;;;13.13;11.82;;;23.50;49.70;;;;;;5075984;28;20025;-65
2022/10/22 07:40:30;;;;;;;13.52;11.75;;;22.70;51.20;;;;;;5076036;28;20438;-63
2022/10/22 07:42:56;;;;;;;11.75;10.55;;;22.30;53.30;;;;;;5075941;28;20067;-64
2022/10/22 07:45:22;;;;;;;12.10;10.77;;;23.40;54.90;;;;;;5075554;28;20021;-63
2022/10/22 07:47:48;;;;;;;14.20;12.25;;;24.20;51.00;;;;;;5075786;28;20097;-63
2022/10/22 07:50:15;;;;;;;13.88;12.40;;;24.50;52.90;;;;;;5075392;28;20056;-64
2022/10/22 07:52:40;;;;;;;17.95;14.52;;;25.60;49.10;;;;;;5075661;28;20086;-63
2022/10/22 07:55:07;;;;;;;15.43;13.23;;;24.90;48.80;;;;;;5075457;28;20380;-64
2022/10/22 07:57:32;;;;;;;15.93;13.45;;;25.10;50.40;;;;;;5075488;28;20017;-63
2022/10/22 07:59:58;;;;;;;14.63;12.32;;;26.70;49.70;;;;;;5075329;28;20087;-64
2022/10/22 08:02:24;;;;;;;12.85;11.45;;;27.90;47.00;;;;;;5075586;28;20372;-64
2022/10/22 08:04:50;;;;;;;12.05;9.85;;;28.10;45.50;;;;;;5075202;28;20035;-62
2022/10/22 08:07:17;;;;;;;9.20;8.30;;;28.30;44.60;;;;;;5075275;28;20442;-64
2022/10/22 08:09:43;;;;;;;9.27;8.18;;;28.00;42.90;;;;;;5075138;28;20025;-64
2022/10/22 08:12:09;;;;;;;8.30;7.50;;;27.70;45.70;;;;;;5075117;28;20074;-63
2022/10/22 08:14:35;;;;;;;7.55;6.82;;;28.20;43.80;;;;;;5075188;28;20021;-63
2022/10/22 08:17:01;;;;;;;8.88;7.97;;;28.30;43.70;;;;;;5074927;28;20023;-63
2022/10/22 08:19:28;;;;;;;7.03;6.32;;;28.20;43.60;;;;;;5074868;28;20020;-63
2022/10/22 08:21:54;;;;;;;7.13;6.43;;;27.30;44.40;;;;;;5074963;28;20471;-64
2022/10/22 08:24:19;;;;;;;6.57;5.75;;;26.60;45.00;;;;;;5074835;28;20031;-63
2022/10/22 08:26:45;;;;;;;5.60;5.10;;;26.10;46.30;;;;;;5074890;28;20021;-62
2022/10/22 08:29:12;;;;;;;5.93;5.20;;;25.50;46.30;;;;;;5073929;28;20071;-65
2022/10/22 08:31:37;;;;;;;6.93;5.55;;;24.90;45.50;;;;;;5074657;28;20111;-63
2022/10/22 08:34:04;;;;;;;5.90;5.38;;;24.40;47.90;;;;;;5074585;28;20100;-64
2022/10/22 08:36:30;;;;;;;10.88;8.07;;;24.10;48.20;;;;;;5074727;28;20078;-63
2022/10/22 08:38:56;;;;;;;11.27;9.40;;;23.90;50.80;;;;;;5074586;28;20020;-64
2022/10/22 08:41:22;;;;;;;9.23;8.32;;;23.80;51.30;;;;;;5074678;28;20394;-64
2022/10/22 08:44:09;;;;;;;8.57;7.13;;;23.60;52.30;;;;;;5074821;28;20028;-64
2022/10/22 08:46:57;;;;;;;8.88;7.97;;;23.50;51.60;;;;;;5073560;28;20486;-64
2022/10/22 08:49:27;;;;;;;10.38;7.18;;;23.40;51.10;;;;;;5074156;28;20024;-63
2022/10/22 08:51:54;;;;;;;7.53;6.80;;;23.40;50.50;;;;;;5074400;28;20111;-65
2022/10/22 08:54:38;;;;;;;6.70;6.07;;;23.40;50.60;;;;;;5074335;28;20024;-63
2022/10/22 08:57:07;;;;;;;6.57;5.97;;;23.40;51.90;;;;;;5074132;28;20020;-63
2022/10/22 08:59:54;;;;;;;5.95;5.35;;;23.40;50.50;;;;;;5074165;28;20025;-63
2022/10/22 09:02:38;;;;;;;7.65;5.80;;;23.60;50.30;;;;;;5073835;28;20470;-64
2022/10/22 09:05:22;;;;;;;4.85;4.45;;;23.70;51.60;;;;;;5074121;28;20060;-64
2022/10/22 09:07:49;;;;;;;5.00;4.57;;;23.60;51.60;;;;;;5074016;28;20112;-64
2022/10/22 09:10:18;;;;;;;5.05;4.65;;;23.60;50.70;;;;;;5074413;28;20024;-63
2022/10/22 09:12:46;;;;;;;5.85;5.25;;;23.40;48.90;;;;;;5073797;28;20101;-63
2022/10/22 09:15:16;;;;;;;7.57;4.93;;;23.40;50.30;;;;;;5074000;28;20017;-63
2022/10/22 09:17:58;;;;;;;7.45;5.80;;;23.50;53.50;;;;;;5073618;28;20068;-62
2022/10/22 09:20:51;;;;;;;8.40;7.28;;;23.40;51.80;;;;;;5073748;28;20467;-63
2022/10/22 09:23:45;;;;;;;16.33;11.13;;;23.40;53.50;;;;;;5073690;28;20024;-62
2022/10/22 09:26:14;;;;;;;16.90;14.05;;;23.60;55.90;;;;;;5073809;28;20103;-64
2022/10/22 09:28:40;;;;;;;15.90;13.25;;;23.60;56.00;;;;;;5073586;28;20083;-63
2022/10/22 09:31:13;;;;;;;13.00;11.60;;;24.00;54.50;;;;;;5073710;28;20056;-62
2022/10/22 09:33:40;;;;;;;12.50;11.20;;;24.50;51.50;;;;;;5073349;28;20056;-64
2022/10/22 09:36:07;;;;;;;11.90;10.70;;;24.60;50.00;;;;;;5073728;28;20023;-63
2022/10/22 09:38:51;;;;;;;10.82;9.82;;;24.60;49.50;;;;;;5073570;28;20356;-62
2022/10/22 09:41:19;;;;;;;11.80;9.82;;;25.10;49.30;;;;;;5073418;28;20505;-63
2022/10/22 09:43:48;;;;;;;9.70;8.70;;;25.60;45.80;;;;;;5073543;28;20471;-62
2022/10/22 09:46:27;;;;;;;8.50;7.68;;;26.00;45.40;;;;;;5073280;28;20070;-62
2022/10/22 09:48:56;;;;;;;8.32;7.57;;;26.80;45.20;;;;;;5073433;28;20029;-64
2022/10/22 09:51:24;;;;;;;8.55;7.70;;;27.50;43.20;;;;;;5073313;28;20077;-60
2022/10/22 09:54:02;;;;;;;6.90;6.30;;;27.60;42.60;;;;;;5073191;28;20498;-61
2022/10/22 09:56:39;;;;;;;5.65;5.25;;;27.50;41.60;;;;;;5073527;28;20020;-63
2022/10/22 09:59:12;;;;;;;5.78;5.22;;;27.60;42.30;;;;;;5073235;28;20120;-62
2022/10/22 10:01:39;;;;;;;6.30;5.70;;;27.80;43.50;;;;;;5073160;28;20047;-63
2022/10/22 10:04:08;;;;;;;5.20;4.65;;;28.50;42.20;;;;;;5073241;28;20030;-60
2022/10/22 10:06:37;;;;;;;6.63;5.15;;;29.00;40.90;;;;;;5073261;28;20027;-61
2022/10/22 10:09:16;;;;;;;5.20;4.80;;;29.50;39.00;;;;;;5073471;28;20047;-62
2022/10/22 10:11:50;;;;;;;5.32;4.90;;;29.80;39.50;;;;;;5072965;28;20471;-60
2022/10/22 10:14:34;;;;;;;5.82;4.20;;;30.40;37.10;;;;;;5073283;28;20103;-61
2022/10/22 10:17:23;;;;;;;5.00;4.50;;;30.70;36.60;;;;;;5072978;28;20028;-62
2022/10/22 10:20:13;;;;;;;5.75;5.22;;;31.10;37.30;;;;;;5072694;28;20403;-62
2022/10/22 10:22:58;;;;;;;5.55;4.88;;;31.20;35.50;;;;;;5073354;28;20024;-62
2022/10/22 10:25:34;;;;;;;5.15;4.35;;;31.00;35.90;;;;;;5073019;28;20047;-62
2022/10/22 10:28:32;;;;;;;4.93;4.18;;;30.90;37.40;;;;;;5071601;28;20371;-63
2022/10/22 10:31:07;;;;;;;5.22;4.72;;;31.00;33.80;;;;;;5072868;28;20087;-61
2022/10/22 10:33:40;;;;;;;5.28;4.78;;;30.50;34.40;;;;;;5072961;28;20036;-62
2022/10/22 10:36:24;;;;;;;5.80;5.20;;;30.30;35.30;;;;;;5072984;28;20021;-62
2022/10/22 10:39:14;;;;;;;6.65;5.90;;;30.20;34.60;;;;;;5072949;28;20020;-63
2022/10/22 10:41:54;;;;;;;5.60;5.03;;;30.10;34.30;;;;;;5072926;28;20020;-62
2022/10/22 10:44:40;;;;;;;6.88;6.22;;;29.80;37.30;;;;;;5072662;28;20028;-61
2022/10/22 10:47:22;;;;;;;5.13;4.63;;;29.50;35.50;;;;;;5072930;28;20028;-62
2022/10/22 10:49:53;;;;;;;4.88;4.30;;;29.50;39.10;;;;;;5072856;28;20028;-63
2022/10/22 10:52:38;;;;;;;5.95;4.03;;;29.40;37.60;;;;;;5073045;28;20036;-64
2022/10/22 10:55:19;;;;;;;4.55;4.15;;;29.20;38.40;;;;;;5076882;28;20425;-62
2022/10/22 10:57:54;;;;;;;4.93;4.20;;;29.00;38.50;;;;;;5075300;28;20394;-63
2022/10/22 11:00:21;;;;;;;4.28;3.88;;;29.00;39.80;;;;;;5076503;28;20024;-64
2022/10/22 11:02:53;;;;;;;5.38;4.10;;;29.40;35.00;;;;;;5076539;28;20051;-62
2022/10/22 11:05:43;;;;;;;5.90;3.55;;;29.70;37.80;;;;;;5076375;28;20103;-62
2022/10/22 11:08:32;;;;;;;4.40;3.30;;;29.90;34.40;;;;;;5076450;28;20016;-62
2022/10/22 11:11:25;;;;;;;3.25;2.95;;;30.50;32.00;;;;;;5076316;28;20031;-61
2022/10/22 11:14:09;;;;;;;5.15;3.65;;;31.00;33.20;;;;;;5076037;28;20033;-62
2022/10/22 11:17:00;;;;;;;3.30;3.00;;;30.90;29.30;;;;;;5076490;28;20024;-63
2022/10/22 11:19:47;;;;;;;3.33;3.00;;;30.70;29.90;;;;;;5076441;28;20051;-63
2022/10/22 11:22:35;;;;;;;4.82;2.90;;;30.70;29.40;;;;;;5076332;28;20028;-63
2022/10/22 11:25:27;;;;;;;2.70;2.50;;;30.60;29.60;;;;;;5076221;28;20052;-61
2022/10/22 11:28:10;;;;;;;3.08;2.78;;;30.70;29.70;;;;;;5073023;28;20470;-63
2022/10/22 11:30:37;;;;;;;5.93;3.75;;;30.80;31.30;;;;;;5075910;28;20021;-64
2022/10/22 11:33:09;;;;;;;2.95;2.60;;;31.10;32.00;;;;;;5076073;28;20053;-63
2022/10/22 11:35:42;;;;;;;2.90;2.45;;;31.00;29.40;;;;;;5075962;28;20476;-63
2022/10/22 11:38:13;;;;;;;5.43;2.92;;;31.10;27.80;;;;;;5076143;28;20032;-62
2022/10/22 11:40:59;;;;;;;2.60;2.40;;;31.30;27.20;;;;;;5076004;28;20142;-61
2022/10/22 11:43:30;;;;;;;4.90;2.83;;;31.30;29.00;;;;;;5075663;28;20028;-63
2022/10/22 11:46:27;;;;;;;2.28;2.08;;;31.10;28.70;;;;;;5075764;28;20021;-63
2022/10/22 11:49:13;;;;;;;3.78;2.65;;;30.70;30.70;;;;;;5075670;28;20421;-61
2022/10/22 11:51:41;;;;;;;5.25;2.65;;;30.80;29.20;;;;;;5075449;28;20033;-63
2022/10/22 11:54:24;;;;;;;2.40;2.15;;;30.90;32.00;;;;;;5075502;28;20059;-62
2022/10/22 11:57:15;;;;;;;5.82;2.97;;;30.70;31.70;;;;;;5075169;28;20096;-64
2022/10/22 11:59:59;;;;;;;2.40;2.20;;;30.60;31.40;;;;;;5075677;28;20099;-63
2022/10/22 12:02:27;;;;;;;3.10;2.30;;;30.40;33.00;;;;;;5075537;28;20359;-61
2022/10/22 12:05:17;;;;;;;2.30;2.10;;;30.40;33.90;;;;;;5074113;28;20032;-63
2022/10/22 12:07:53;;;;;;;2.45;2.25;;;30.40;34.40;;;;;;5075287;28;20024;-61
2022/10/22 12:10:21;;;;;;;2.70;2.50;;;30.40;33.20;;;;;;5075295;28;20028;-62
2022/10/22 12:13:00;;;;;;;3.90;2.55;;;30.40;34.10;;;;;;5075301;28;20060;-62
2022/10/22 12:15:26;;;;;;;3.13;2.83;;;30.40;32.80;;;;;;5075206;28;20024;-63
2022/10/22 12:17:59;;;;;;;3.80;2.50;;;30.40;35.00;;;;;;5075195;28;20035;-60
2022/10/22 12:20:26;;;;;;;3.13;2.70;;;30.50;34.50;;;;;;5075172;28;20020;-62
2022/10/22 12:22:54;;;;;;;4.05;3.40;;;30.40;35.50;;;;;;5074989;28;20492;-62
2022/10/22 12:25:28;;;;;;;3.28;2.80;;;30.40;32.90;;;;;;5074640;28;20049;-63
2022/10/22 12:27:59;;;;;;;3.40;3.10;;;30.40;34.70;;;;;;5074724;28;20021;-62
2022/10/22 12:30:27;;;;;;;3.93;3.17;;;30.40;34.30;;;;;;5074901;28;20021;-63
2022/10/22 12:32:55;;;;;;;4.03;3.63;;;30.70;34.80;;;;;;5075003;28;20284;-63
2022/10/22 12:35:24;;;;;;;3.95;3.47;;;30.90;34.20;;;;;;5074977;28;20093;-63
2022/10/22 12:38:14;;;;;;;3.67;3.38;;;31.00;32.50;;;;;;5074868;28;20378;-61
2022/10/22 12:40:41;;;;;;;4.07;3.65;;;31.20;33.30;;;;;;5070997;28;20029;-62
2022/10/22 12:43:12;;;;;;;4.65;4.00;;;31.40;34.60;;;;;;5074491;28;20024;-62
2022/10/22 12:45:39;;;;;;;4.10;3.70;;;31.60;31.80;;;;;;5074794;28;20104;-64
2022/10/22 12:48:13;;;;;;;4.00;3.70;;;31.50;31.10;;;;;;5074746;28;20036;-64
2022/10/22 12:50:41;;;;;;;5.80;4.40;;;31.50;30.60;;;;;;5074340;28;20475;-64
2022/10/22 12:53:21;;;;;;;5.78;4.60;;;31.40;30.90;;;;;;5074625;28;20083;-63
2022/10/22 12:55:49;;;;;;;7.15;5.50;;;31.00;30.20;;;;;;5074276;28;20016;-61
2022/10/22 12:58:26;;;;;;;6.53;5.82;;;30.80;33.60;;;;;;5074323;28;20023;-62